sensor_id;sensor_type;location;lat;lon;timestamp;temperature;humidity
5924;DHT22;2987;50.884;14.818;2023-07-13T00:02:07;18.30;99.90
5924;DHT22;2987;50.884;14.818;2023-07-13T00:04:34;18.30;99.90
5924;DHT22;2987;50.884;14.818;2023-07-13T00:07:00;18.20;99.90
5924;DHT22;2987;50.884;14.818;2023-07-13T00:09:26;18.20;99.90
5924;DHT22;2987;50.884;14.818;2023-07-13T00:11:55;18.30;99.90
5924;DHT22;2987;50.884;14.818;2023-07-13T00:14:22;18.30;99.90
5924;DHT22;2987;50.884;14.818;2023-07-13T00:16:48;18.30;99.90
5924;DHT22;2987;50.884;14.818;2023-07-13T00:19:14;18.20;99.90
5924;DHT22;2987;50.884;14.818;2023-07-13T00:21:41;18.20;99.90
5924;DHT22;2987;50.884;14.818;2023-07-13T00:24:10;18.20;99.90
5924;DHT22;2987;50.884;14.818;2023-07-13T00:26:39;18.20;99.90
5924;DHT22;2987;50.884;14.818;2023-07-13T00:29:05;18.20;99.90
5924;DHT22;2987;50.884;14.818;2023-07-13T00:31:35;18.20;99.90
5924;DHT22;2987;50.884;14.818;2023-07-13T00:34:02;18.30;99.90
5924;DHT22;2987;50.884;14.818;2023-07-13T00:36:29;18.20;99.90
5924;DHT22;2987;50.884;14.818;2023-07-13T00:38:56;18.30;99.90
5924;DHT22;2987;50.884;14.818;2023-07-13T00:41:24;18.30;99.90
5924;DHT22;2987;50.884;14.818;2023-07-13T00:43:49;18.20;99.90
5924;DHT22;2987;50.884;14.818;2023-07-13T00:46:21;18.20;99.90
5924;DHT22;2987;50.884;14.818;2023-07-13T00:48:49;18.20;99.90
5924;DHT22;2987;50.884;14.818;2023-07-13T00:51:19;18.20;99.90
5924;DHT22;2987;50.884;14.818;2023-07-13T00:53:46;18.20;99.90
5924;DHT22;2987;50.884;14.818;2023-07-13T00:56:13;18.10;99.90
5924;DHT22;2987;50.884;14.818;2023-07-13T00:58:40;18.10;99.90
5924;DHT22;2987;50.884;14.818;2023-07-13T01:01:06;18.10;99.90
5924;DHT22;2987;50.884;14.818;2023-07-13T01:03:34;18.10;99.90
5924;DHT22;2987;50.884;14.818;2023-07-13T01:06:01;18.10;99.90
5924;DHT22;2987;50.884;14.818;2023-07-13T01:08:27;18.20;99.90
5924;DHT22;2987;50.884;14.818;2023-07-13T01:10:55;18.20;99.90
5924;DHT22;2987;50.884;14.818;2023-07-13T01:13:22;18.20;99.90
5924;DHT22;2987;50.884;14.818;2023-07-13T01:15:50;18.30;99.90
5924;DHT22;2987;50.884;14.818;2023-07-13T01:18:26;18.40;99.90
5924;DHT22;2987;50.884;14.818;2023-07-13T01:20:57;18.60;99.90
5924;DHT22;2987;50.884;14.818;2023-07-13T01:23:26;18.70;99.90
5924;DHT22;2987;50.884;14.818;2023-07-13T01:25:56;18.70;99.90
5924;DHT22;2987;50.884;14.818;2023-07-13T01:28:24;18.60;99.90
5924;DHT22;2987;50.884;14.818;2023-07-13T01:33:19;18.60;99.90
5924;DHT22;2987;50.884;14.818;2023-07-13T01:35:45;18.60;99.90
5924;DHT22;2987;50.884;14.818;2023-07-13T01:38:14;18.50;99.90
5924;DHT22;2987;50.884;14.818;2023-07-13T01:40:41;18.50;99.90
5924;DHT22;2987;50.884;14.818;2023-07-13T01:43:07;18.50;99.90
5924;DHT22;2987;50.884;14.818;2023-07-13T01:45:33;18.50;99.90
5924;DHT22;2987;50.884;14.818;2023-07-13T01:47:59;18.40;99.90
5924;DHT22;2987;50.884;14.818;2023-07-13T01:50:26;18.30;99.90
5924;DHT22;2987;50.884;14.818;2023-07-13T01:52:52;18.20;99.90
5924;DHT22;2987;50.884;14.818;2023-07-13T01:55:20;18.10;99.90
5924;DHT22;2987;50.884;14.818;2023-07-13T01:57:46;18.00;99.90
5924;DHT22;2987;50.884;14.818;2023-07-13T02:00:13;17.90;99.90
5924;DHT22;2987;50.884;14.818;2023-07-13T02:02:42;17.90;99.90
5924;DHT22;2987;50.884;14.818;2023-07-13T02:05:08;17.90;99.90
5924;DHT22;2987;50.884;14.818;2023-07-13T02:07:35;17.90;99.90
5924;DHT22;2987;50.884;14.818;2023-07-13T02:10:01;17.90;99.90
5924;DHT22;2987;50.884;14.818;2023-07-13T02:12:27;17.90;99.90
5924;DHT22;2987;50.884;14.818;2023-07-13T02:14:53;17.90;99.90
5924;DHT22;2987;50.884;14.818;2023-07-13T02:17:19;18.00;99.90
5924;DHT22;2987;50.884;14.818;2023-07-13T02:19:45;18.00;99.90
5924;DHT22;2987;50.884;14.818;2023-07-13T02:22:11;18.00;99.90
5924;DHT22;2987;50.884;14.818;2023-07-13T02:24:37;18.00;99.90
5924;DHT22;2987;50.884;14.818;2023-07-13T02:27:05;18.00;99.90
5924;DHT22;2987;50.884;14.818;2023-07-13T02:29:31;17.90;99.90
5924;DHT22;2987;50.884;14.818;2023-07-13T02:31:57;17.80;99.90
5924;DHT22;2987;50.884;14.818;2023-07-13T02:34:23;17.80;99.90
5924;DHT22;2987;50.884;14.818;2023-07-13T02:39:15;17.60;99.90
5924;DHT22;2987;50.884;14.818;2023-07-13T02:41:41;17.50;99.90
5924;DHT22;2987;50.884;14.818;2023-07-13T02:44:07;17.50;99.90
5924;DHT22;2987;50.884;14.818;2023-07-13T02:46:35;17.40;99.90
5924;DHT22;2987;50.884;14.818;2023-07-13T02:49:02;17.40;99.90
5924;DHT22;2987;50.884;14.818;2023-07-13T02:51:29;17.30;99.90
5924;DHT22;2987;50.884;14.818;2023-07-13T02:53:56;17.30;99.90
5924;DHT22;2987;50.884;14.818;2023-07-13T02:56:25;17.20;99.90
5924;DHT22;2987;50.884;14.818;2023-07-13T02:58:51;17.20;99.90
5924;DHT22;2987;50.884;14.818;2023-07-13T03:01:17;17.10;99.90
5924;DHT22;2987;50.884;14.818;2023-07-13T03:03:45;17.00;99.90
5924;DHT22;2987;50.884;14.818;2023-07-13T03:06:13;17.00;99.90
5924;DHT22;2987;50.884;14.818;2023-07-13T03:08:50;17.00;99.90
5924;DHT22;2987;50.884;14.818;2023-07-13T03:11:19;16.90;99.90
5924;DHT22;2987;50.884;14.818;2023-07-13T03:13:52;16.90;99.90
5924;DHT22;2987;50.884;14.818;2023-07-13T03:16:20;16.90;99.90
5924;DHT22;2987;50.884;14.818;2023-07-13T03:18:49;16.90;99.90
5924;DHT22;2987;50.884;14.818;2023-07-13T03:21:16;16.80;99.90
5924;DHT22;2987;50.884;14.818;2023-07-13T03:23:42;16.80;99.90
5924;DHT22;2987;50.884;14.818;2023-07-13T03:26:11;16.80;99.90
5924;DHT22;2987;50.884;14.818;2023-07-13T03:28:41;16.80;99.90
5924;DHT22;2987;50.884;14.818;2023-07-13T03:31:10;16.90;99.90
5924;DHT22;2987;50.884;14.818;2023-07-13T03:33:38;16.90;99.90
5924;DHT22;2987;50.884;14.818;2023-07-13T03:36:06;17.00;99.90
5924;DHT22;2987;50.884;14.818;2023-07-13T03:38:33;17.00;99.90
5924;DHT22;2987;50.884;14.818;2023-07-13T03:41:01;17.00;99.90
5924;DHT22;2987;50.884;14.818;2023-07-13T03:43:28;17.00;99.90
5924;DHT22;2987;50.884;14.818;2023-07-13T03:45:54;17.00;99.90
5924;DHT22;2987;50.884;14.818;2023-07-13T03:48:21;16.80;99.90
5924;DHT22;2987;50.884;14.818;2023-07-13T03:50:47;16.80;99.90
5924;DHT22;2987;50.884;14.818;2023-07-13T03:53:15;16.80;99.90
5924;DHT22;2987;50.884;14.818;2023-07-13T03:55:42;16.80;99.90
5924;DHT22;2987;50.884;14.818;2023-07-13T03:58:29;16.80;99.90
5924;DHT22;2987;50.884;14.818;2023-07-13T04:03:28;16.70;99.90
5924;DHT22;2987;50.884;14.818;2023-07-13T04:05:55;16.70;99.90
5924;DHT22;2987;50.884;14.818;2023-07-13T04:08:31;16.70;99.90
5924;DHT22;2987;50.884;14.818;2023-07-13T04:10:57;16.70;99.90
5924;DHT22;2987;50.884;14.818;2023-07-13T04:13:24;16.70;99.90
5924;DHT22;2987;50.884;14.818;2023-07-13T04:15:50;16.70;99.90
5924;DHT22;2987;50.884;14.818;2023-07-13T04:18:17;16.70;99.90
5924;DHT22;2987;50.884;14.818;2023-07-13T04:20:43;16.70;99.90
5924;DHT22;2987;50.884;14.818;2023-07-13T04:23:09;16.80;99.90
5924;DHT22;2987;50.884;14.818;2023-07-13T04:25:35;16.70;99.90
5924;DHT22;2987;50.884;14.818;2023-07-13T04:28:02;16.70;99.90
5924;DHT22;2987;50.884;14.818;2023-07-13T04:30:28;16.60;99.90
5924;DHT22;2987;50.884;14.818;2023-07-13T04:32:54;16.50;99.90
5924;DHT22;2987;50.884;14.818;2023-07-13T04:35:20;16.50;99.90
5924;DHT22;2987;50.884;14.818;2023-07-13T04:37:48;16.50;99.90
5924;DHT22;2987;50.884;14.818;2023-07-13T04:40:17;16.50;99.90
5924;DHT22;2987;50.884;14.818;2023-07-13T04:42:44;16.50;99.90
5924;DHT22;2987;50.884;14.818;2023-07-13T04:45:11;16.50;99.90
5924;DHT22;2987;50.884;14.818;2023-07-13T04:47:37;16.50;99.90
5924;DHT22;2987;50.884;14.818;2023-07-13T04:50:04;16.60;99.90
5924;DHT22;2987;50.884;14.818;2023-07-13T04:52:30;16.50;99.90
5924;DHT22;2987;50.884;14.818;2023-07-13T04:54:56;16.60;99.90
5924;DHT22;2987;50.884;14.818;2023-07-13T04:57:22;16.60;99.90
5924;DHT22;2987;50.884;14.818;2023-07-13T04:59:48;16.60;99.90
5924;DHT22;2987;50.884;14.818;2023-07-13T05:02:13;16.60;99.90
5924;DHT22;2987;50.884;14.818;2023-07-13T05:04:40;16.70;99.90
5924;DHT22;2987;50.884;14.818;2023-07-13T05:07:06;16.80;99.90
5924;DHT22;2987;50.884;14.818;2023-07-13T05:09:32;16.80;99.90
5924;DHT22;2987;50.884;14.818;2023-07-13T05:11:58;16.80;99.90
5924;DHT22;2987;50.884;14.818;2023-07-13T05:14:24;16.80;99.90
5924;DHT22;2987;50.884;14.818;2023-07-13T05:16:50;16.90;99.90
5924;DHT22;2987;50.884;14.818;2023-07-13T05:19:16;16.90;99.90
5924;DHT22;2987;50.884;14.818;2023-07-13T05:21:42;17.00;99.90
5924;DHT22;2987;50.884;14.818;2023-07-13T05:24:08;17.00;99.90
5924;DHT22;2987;50.884;14.818;2023-07-13T05:26:34;17.10;99.90
5924;DHT22;2987;50.884;14.818;2023-07-13T05:29:00;17.20;99.90
5924;DHT22;2987;50.884;14.818;2023-07-13T05:31:26;17.20;99.90
5924;DHT22;2987;50.884;14.818;2023-07-13T05:33:52;17.30;99.90
5924;DHT22;2987;50.884;14.818;2023-07-13T05:36:18;17.30;99.90
5924;DHT22;2987;50.884;14.818;2023-07-13T05:38:44;17.40;99.90
5924;DHT22;2987;50.884;14.818;2023-07-13T05:41:10;17.30;99.90
5924;DHT22;2987;50.884;14.818;2023-07-13T05:43:36;17.30;99.90
5924;DHT22;2987;50.884;14.818;2023-07-13T05:46:02;17.40;99.90
5924;DHT22;2987;50.884;14.818;2023-07-13T05:48:28;17.50;99.90
5924;DHT22;2987;50.884;14.818;2023-07-13T05:50:54;17.60;99.90
5924;DHT22;2987;50.884;14.818;2023-07-13T05:53:20;17.70;99.90
5924;DHT22;2987;50.884;14.818;2023-07-13T05:55:47;17.70;99.90
5924;DHT22;2987;50.884;14.818;2023-07-13T05:58:17;17.80;99.90
5924;DHT22;2987;50.884;14.818;2023-07-13T06:00:43;17.80;99.90
5924;DHT22;2987;50.884;14.818;2023-07-13T06:03:09;17.90;99.90
5924;DHT22;2987;50.884;14.818;2023-07-13T06:05:37;17.90;99.90
5924;DHT22;2987;50.884;14.818;2023-07-13T06:08:04;17.90;99.90
5924;DHT22;2987;50.884;14.818;2023-07-13T06:10:34;18.10;99.90
5924;DHT22;2987;50.884;14.818;2023-07-13T06:13:00;18.20;99.90
5924;DHT22;2987;50.884;14.818;2023-07-13T06:15:26;18.30;99.90
5924;DHT22;2987;50.884;14.818;2023-07-13T06:17:52;18.40;99.90
5924;DHT22;2987;50.884;14.818;2023-07-13T06:20:18;18.50;99.90
5924;DHT22;2987;50.884;14.818;2023-07-13T06:22:44;18.70;99.90
5924;DHT22;2987;50.884;14.818;2023-07-13T06:25:10;18.90;99.90
5924;DHT22;2987;50.884;14.818;2023-07-13T06:27:36;19.10;99.90
5924;DHT22;2987;50.884;14.818;2023-07-13T06:30:02;19.40;99.90
5924;DHT22;2987;50.884;14.818;2023-07-13T06:32:28;19.60;99.90
5924;DHT22;2987;50.884;14.818;2023-07-13T06:34:54;19.90;99.90
5924;DHT22;2987;50.884;14.818;2023-07-13T06:37:20;20.30;99.90
5924;DHT22;2987;50.884;14.818;2023-07-13T06:39:46;20.50;99.90
5924;DHT22;2987;50.884;14.818;2023-07-13T06:42:12;20.70;99.90
5924;DHT22;2987;50.884;14.818;2023-07-13T06:44:39;20.90;99.90
5924;DHT22;2987;50.884;14.818;2023-07-13T06:47:05;21.20;99.90
5924;DHT22;2987;50.884;14.818;2023-07-13T06:49:31;21.30;99.90
5924;DHT22;2987;50.884;14.818;2023-07-13T06:51:57;21.50;99.90
5924;DHT22;2987;50.884;14.818;2023-07-13T06:54:23;21.70;99.90
5924;DHT22;2987;50.884;14.818;2023-07-13T06:56:49;21.80;99.90
5924;DHT22;2987;50.884;14.818;2023-07-13T06:59:15;21.70;99.90
5924;DHT22;2987;50.884;14.818;2023-07-13T07:01:40;21.70;99.90
5924;DHT22;2987;50.884;14.818;2023-07-13T07:04:06;21.70;99.90
5924;DHT22;2987;50.884;14.818;2023-07-13T07:06:32;21.80;99.90
5924;DHT22;2987;50.884;14.818;2023-07-13T07:08:58;22.00;99.90
5924;DHT22;2987;50.884;14.818;2023-07-13T07:11:25;21.80;99.90
5924;DHT22;2987;50.884;14.818;2023-07-13T07:13:53;21.80;99.90
5924;DHT22;2987;50.884;14.818;2023-07-13T07:16:20;22.10;99.90
5924;DHT22;2987;50.884;14.818;2023-07-13T07:18:46;22.30;99.90
5924;DHT22;2987;50.884;14.818;2023-07-13T07:21:13;22.30;99.90
5924;DHT22;2987;50.884;14.818;2023-07-13T07:23:39;22.30;99.90
5924;DHT22;2987;50.884;14.818;2023-07-13T07:26:06;22.50;99.90
5924;DHT22;2987;50.884;14.818;2023-07-13T07:28:34;22.40;99.90
5924;DHT22;2987;50.884;14.818;2023-07-13T07:31:00;22.70;99.90
5924;DHT22;2987;50.884;14.818;2023-07-13T07:33:26;22.80;99.90
5924;DHT22;2987;50.884;14.818;2023-07-13T07:35:52;22.90;99.90
5924;DHT22;2987;50.884;14.818;2023-07-13T07:38:19;23.20;99.90
5924;DHT22;2987;50.884;14.818;2023-07-13T07:40:45;23.40;99.90
5924;DHT22;2987;50.884;14.818;2023-07-13T07:43:12;23.80;99.90
5924;DHT22;2987;50.884;14.818;2023-07-13T07:45:39;24.00;99.90
5924;DHT22;2987;50.884;14.818;2023-07-13T07:48:06;23.70;99.90
5924;DHT22;2987;50.884;14.818;2023-07-13T07:50:33;23.60;99.90
5924;DHT22;2987;50.884;14.818;2023-07-13T07:52:59;23.50;99.90
5924;DHT22;2987;50.884;14.818;2023-07-13T07:55:27;23.30;99.90
5924;DHT22;2987;50.884;14.818;2023-07-13T07:57:54;23.20;99.90
5924;DHT22;2987;50.884;14.818;2023-07-13T08:00:20;23.10;99.90
5924;DHT22;2987;50.884;14.818;2023-07-13T08:02:47;23.20;99.90
5924;DHT22;2987;50.884;14.818;2023-07-13T08:05:14;23.30;99.90
5924;DHT22;2987;50.884;14.818;2023-07-13T08:07:40;23.60;99.90
5924;DHT22;2987;50.884;14.818;2023-07-13T08:10:07;23.80;99.90
5924;DHT22;2987;50.884;14.818;2023-07-13T08:12:35;23.80;99.90
5924;DHT22;2987;50.884;14.818;2023-07-13T08:15:01;23.80;99.90
5924;DHT22;2987;50.884;14.818;2023-07-13T08:17:27;23.90;99.90
5924;DHT22;2987;50.884;14.818;2023-07-13T08:19:53;23.90;99.90
5924;DHT22;2987;50.884;14.818;2023-07-13T08:22:19;23.90;99.90
5924;DHT22;2987;50.884;14.818;2023-07-13T08:24:45;23.80;99.90
5924;DHT22;2987;50.884;14.818;2023-07-13T08:27:13;23.80;99.90
5924;DHT22;2987;50.884;14.818;2023-07-13T08:29:39;23.80;99.90
5924;DHT22;2987;50.884;14.818;2023-07-13T08:32:06;23.80;99.90
5924;DHT22;2987;50.884;14.818;2023-07-13T08:34:35;24.20;99.90
5924;DHT22;2987;50.884;14.818;2023-07-13T08:37:02;24.40;99.90
5924;DHT22;2987;50.884;14.818;2023-07-13T08:39:30;24.30;99.90
5924;DHT22;2987;50.884;14.818;2023-07-13T08:42:04;24.60;99.90
5924;DHT22;2987;50.884;14.818;2023-07-13T08:47:40;24.80;99.90
5924;DHT22;2987;50.884;14.818;2023-07-13T08:52:39;24.60;99.90
5924;DHT22;2987;50.884;14.818;2023-07-13T08:55:17;24.20;99.90
5924;DHT22;2987;50.884;14.818;2023-07-13T08:57:48;24.20;99.90
5924;DHT22;2987;50.884;14.818;2023-07-13T09:00:16;24.30;99.90
5924;DHT22;2987;50.884;14.818;2023-07-13T09:02:56;24.10;99.90
5924;DHT22;2987;50.884;14.818;2023-07-13T09:05:37;23.90;99.90
5924;DHT22;2987;50.884;14.818;2023-07-13T09:10:46;24.00;99.90
5924;DHT22;2987;50.884;14.818;2023-07-13T09:13:28;24.00;99.90
5924;DHT22;2987;50.884;14.818;2023-07-13T09:15:59;24.30;99.90
5924;DHT22;2987;50.884;14.818;2023-07-13T09:18:30;24.50;99.90
5924;DHT22;2987;50.884;14.818;2023-07-13T09:21:03;24.80;99.90
5924;DHT22;2987;50.884;14.818;2023-07-13T09:23:31;25.20;99.90
5924;DHT22;2987;50.884;14.818;2023-07-13T09:26:04;25.30;99.90
5924;DHT22;2987;50.884;14.818;2023-07-13T09:28:38;25.30;99.90
5924;DHT22;2987;50.884;14.818;2023-07-13T09:31:08;25.10;99.90
5924;DHT22;2987;50.884;14.818;2023-07-13T09:33:39;25.50;99.90
5924;DHT22;2987;50.884;14.818;2023-07-13T09:36:27;25.80;99.90
5924;DHT22;2987;50.884;14.818;2023-07-13T09:39:09;26.40;99.90
5924;DHT22;2987;50.884;14.818;2023-07-13T09:46:57;26.30;99.90
5924;DHT22;2987;50.884;14.818;2023-07-13T09:49:26;26.40;99.90
5924;DHT22;2987;50.884;14.818;2023-07-13T09:51:59;26.50;99.90
5924;DHT22;2987;50.884;14.818;2023-07-13T09:54:26;26.70;99.90
5924;DHT22;2987;50.884;14.818;2023-07-13T09:56:56;26.70;99.90
5924;DHT22;2987;50.884;14.818;2023-07-13T09:59:27;26.20;99.90
5924;DHT22;2987;50.884;14.818;2023-07-13T10:01:54;25.90;99.90
5924;DHT22;2987;50.884;14.818;2023-07-13T10:04:27;25.70;99.90
5924;DHT22;2987;50.884;14.818;2023-07-13T10:07:07;25.40;99.90
5924;DHT22;2987;50.884;14.818;2023-07-13T10:09:33;25.30;99.90
5924;DHT22;2987;50.884;14.818;2023-07-13T10:11:59;25.40;99.90
5924;DHT22;2987;50.884;14.818;2023-07-13T10:14:26;25.60;99.90
5924;DHT22;2987;50.884;14.818;2023-07-13T10:16:59;25.90;99.90
5924;DHT22;2987;50.884;14.818;2023-07-13T10:19:32;26.40;99.90
5924;DHT22;2987;50.884;14.818;2023-07-13T10:22:03;26.70;99.90
5924;DHT22;2987;50.884;14.818;2023-07-13T10:24:37;27.30;99.90
5924;DHT22;2987;50.884;14.818;2023-07-13T10:27:15;27.70;99.90
5924;DHT22;2987;50.884;14.818;2023-07-13T10:29:51;27.90;99.90
5924;DHT22;2987;50.884;14.818;2023-07-13T10:32:20;28.30;99.90
5924;DHT22;2987;50.884;14.818;2023-07-13T10:34:48;28.20;99.90
5924;DHT22;2987;50.884;14.818;2023-07-13T10:37:20;28.10;99.90
5924;DHT22;2987;50.884;14.818;2023-07-13T10:39:50;27.80;99.90
5924;DHT22;2987;50.884;14.818;2023-07-13T10:42:27;27.50;99.90
5924;DHT22;2987;50.884;14.818;2023-07-13T10:44:54;27.00;99.90
5924;DHT22;2987;50.884;14.818;2023-07-13T10:47:20;26.90;99.90
5924;DHT22;2987;50.884;14.818;2023-07-13T10:49:46;26.90;99.90
5924;DHT22;2987;50.884;14.818;2023-07-13T10:55:03;27.10;99.90
5924;DHT22;2987;50.884;14.818;2023-07-13T10:57:29;27.10;99.90
5924;DHT22;2987;50.884;14.818;2023-07-13T11:02:28;26.80;99.90
5924;DHT22;2987;50.884;14.818;2023-07-13T11:04:55;26.60;99.90
5924;DHT22;2987;50.884;14.818;2023-07-13T11:07:29;26.60;99.90
5924;DHT22;2987;50.884;14.818;2023-07-13T11:09:57;26.70;99.90
5924;DHT22;2987;50.884;14.818;2023-07-13T11:12:28;27.00;99.90
5924;DHT22;2987;50.884;14.818;2023-07-13T11:15:13;27.10;99.90
5924;DHT22;2987;50.884;14.818;2023-07-13T11:17:55;27.20;99.90
5924;DHT22;2987;50.884;14.818;2023-07-13T11:20:36;27.10;99.10
5924;DHT22;2987;50.884;14.818;2023-07-13T11:23:15;27.00;99.90
5924;DHT22;2987;50.884;14.818;2023-07-13T11:25:43;26.80;99.90
5924;DHT22;2987;50.884;14.818;2023-07-13T11:28:22;26.90;99.90
5924;DHT22;2987;50.884;14.818;2023-07-13T11:31:01;26.70;99.50
5924;DHT22;2987;50.884;14.818;2023-07-13T11:33:49;26.70;98.40
5924;DHT22;2987;50.884;14.818;2023-07-13T11:36:19;26.70;97.90
5924;DHT22;2987;50.884;14.818;2023-07-13T11:38:58;26.80;99.60
5924;DHT22;2987;50.884;14.818;2023-07-13T11:46:48;27.20;98.90
5924;DHT22;2987;50.884;14.818;2023-07-13T11:49:17;27.20;97.80
5924;DHT22;2987;50.884;14.818;2023-07-13T11:51:44;27.20;98.30
5924;DHT22;2987;50.884;14.818;2023-07-13T11:54:27;27.00;99.00
5924;DHT22;2987;50.884;14.818;2023-07-13T11:56:56;26.80;98.20
5924;DHT22;2987;50.884;14.818;2023-07-13T11:59:24;26.80;97.20
5924;DHT22;2987;50.884;14.818;2023-07-13T12:01:54;26.80;99.90
5924;DHT22;2987;50.884;14.818;2023-07-13T12:04:26;26.80;98.80
5924;DHT22;2987;50.884;14.818;2023-07-13T12:06:56;26.70;99.00
5924;DHT22;2987;50.884;14.818;2023-07-13T12:09:26;26.50;99.90
5924;DHT22;2987;50.884;14.818;2023-07-13T12:11:53;26.40;99.60
5924;DHT22;2987;50.884;14.818;2023-07-13T12:14:19;26.70;99.30
5924;DHT22;2987;50.884;14.818;2023-07-13T12:16:47;27.20;98.70
5924;DHT22;2987;50.884;14.818;2023-07-13T12:19:20;27.20;98.10
5924;DHT22;2987;50.884;14.818;2023-07-13T12:21:46;27.60;99.00
5924;DHT22;2987;50.884;14.818;2023-07-13T12:24:16;27.50;97.20
5924;DHT22;2987;50.884;14.818;2023-07-13T12:26:42;27.30;99.30
5924;DHT22;2987;50.884;14.818;2023-07-13T12:29:15;27.30;99.90
5924;DHT22;2987;50.884;14.818;2023-07-13T12:31:44;26.90;99.90
5924;DHT22;2987;50.884;14.818;2023-07-13T12:34:17;27.00;99.90
5924;DHT22;2987;50.884;14.818;2023-07-13T12:36:55;27.30;99.10
5924;DHT22;2987;50.884;14.818;2023-07-13T12:39:36;27.10;99.70
5924;DHT22;2987;50.884;14.818;2023-07-13T12:42:24;27.20;99.90
5924;DHT22;2987;50.884;14.818;2023-07-13T12:44:56;27.20;98.20
5924;DHT22;2987;50.884;14.818;2023-07-13T12:47:24;27.20;98.80
5924;DHT22;2987;50.884;14.818;2023-07-13T12:52:19;27.00;97.90
5924;DHT22;2987;50.884;14.818;2023-07-13T12:54:55;26.80;96.50
5924;DHT22;2987;50.884;14.818;2023-07-13T12:57:23;26.50;96.70
5924;DHT22;2987;50.884;14.818;2023-07-13T12:59:53;26.40;97.20
5924;DHT22;2987;50.884;14.818;2023-07-13T13:02:28;26.10;97.30
5924;DHT22;2987;50.884;14.818;2023-07-13T13:04:56;26.00;99.90
5924;DHT22;2987;50.884;14.818;2023-07-13T13:07:23;25.80;99.90
5924;DHT22;2987;50.884;14.818;2023-07-13T13:09:50;25.70;99.90
5924;DHT22;2987;50.884;14.818;2023-07-13T13:12:15;25.60;99.90
5924;DHT22;2987;50.884;14.818;2023-07-13T13:14:43;25.50;97.80
5924;DHT22;2987;50.884;14.818;2023-07-13T13:17:19;25.40;99.50
5924;DHT22;2987;50.884;14.818;2023-07-13T13:19:46;25.40;99.90
5924;DHT22;2987;50.884;14.818;2023-07-13T13:22:13;25.30;98.50
5924;DHT22;2987;50.884;14.818;2023-07-13T13:24:39;25.20;99.90
5924;DHT22;2987;50.884;14.818;2023-07-13T13:27:15;25.20;99.90
5924;DHT22;2987;50.884;14.818;2023-07-13T13:29:43;25.20;98.90
5924;DHT22;2987;50.884;14.818;2023-07-13T13:32:13;25.30;99.90
5924;DHT22;2987;50.884;14.818;2023-07-13T13:34:39;25.30;99.90
5924;DHT22;2987;50.884;14.818;2023-07-13T13:37:20;25.40;99.90
5924;DHT22;2987;50.884;14.818;2023-07-13T13:39:46;25.30;99.60
5924;DHT22;2987;50.884;14.818;2023-07-13T13:42:12;25.40;99.00
5924;DHT22;2987;50.884;14.818;2023-07-13T13:44:39;25.40;99.90
5924;DHT22;2987;50.884;14.818;2023-07-13T13:47:33;25.50;99.90
5924;DHT22;2987;50.884;14.818;2023-07-13T13:52:26;25.60;98.60
5924;DHT22;2987;50.884;14.818;2023-07-13T13:54:52;25.80;99.20
5924;DHT22;2987;50.884;14.818;2023-07-13T13:57:23;25.90;99.90
5924;DHT22;2987;50.884;14.818;2023-07-13T13:59:50;26.10;99.60
5924;DHT22;2987;50.884;14.818;2023-07-13T14:02:25;26.30;99.90
5924;DHT22;2987;50.884;14.818;2023-07-13T14:04:56;26.30;97.40
5924;DHT22;2987;50.884;14.818;2023-07-13T14:07:22;26.10;97.90
5924;DHT22;2987;50.884;14.818;2023-07-13T14:09:48;26.10;97.10
5924;DHT22;2987;50.884;14.818;2023-07-13T14:12:14;26.00;96.20
5924;DHT22;2987;50.884;14.818;2023-07-13T14:14:40;26.10;98.10
5924;DHT22;2987;50.884;14.818;2023-07-13T14:17:19;26.30;97.90
5924;DHT22;2987;50.884;14.818;2023-07-13T14:19:50;26.60;97.60
5924;DHT22;2987;50.884;14.818;2023-07-13T14:22:17;26.90;95.30
5924;DHT22;2987;50.884;14.818;2023-07-13T14:24:44;27.00;93.80
5924;DHT22;2987;50.884;14.818;2023-07-13T14:27:12;27.00;93.40
5924;DHT22;2987;50.884;14.818;2023-07-13T14:29:38;27.30;94.10
5924;DHT22;2987;50.884;14.818;2023-07-13T14:32:05;27.30;93.20
5924;DHT22;2987;50.884;14.818;2023-07-13T14:34:31;27.50;94.70
5924;DHT22;2987;50.884;14.818;2023-07-13T14:36:57;27.70;94.10
5924;DHT22;2987;50.884;14.818;2023-07-13T14:39:24;28.00;93.20
5924;DHT22;2987;50.884;14.818;2023-07-13T14:41:55;28.20;92.10
5924;DHT22;2987;50.884;14.818;2023-07-13T14:44:25;28.30;90.60
5924;DHT22;2987;50.884;14.818;2023-07-13T14:46:52;28.00;92.70
5924;DHT22;2987;50.884;14.818;2023-07-13T14:49:37;28.00;90.80
5924;DHT22;2987;50.884;14.818;2023-07-13T14:52:13;28.10;92.80
5924;DHT22;2987;50.884;14.818;2023-07-13T14:54:40;28.10;92.50
5924;DHT22;2987;50.884;14.818;2023-07-13T14:57:11;27.90;92.80
5924;DHT22;2987;50.884;14.818;2023-07-13T14:59:38;27.40;92.80
5924;DHT22;2987;50.884;14.818;2023-07-13T15:07:25;26.40;92.40
5924;DHT22;2987;50.884;14.818;2023-07-13T15:09:51;26.20;94.40
5924;DHT22;2987;50.884;14.818;2023-07-13T15:12:18;26.30;93.30
5924;DHT22;2987;50.884;14.818;2023-07-13T15:14:44;26.30;93.30
5924;DHT22;2987;50.884;14.818;2023-07-13T15:17:31;26.50;93.90
5924;DHT22;2987;50.884;14.818;2023-07-13T15:22:25;26.30;94.20
5924;DHT22;2987;50.884;14.818;2023-07-13T15:24:51;26.30;92.50
5924;DHT22;2987;50.884;14.818;2023-07-13T15:27:17;26.20;93.60
5924;DHT22;2987;50.884;14.818;2023-07-13T15:29:43;26.40;93.00
5924;DHT22;2987;50.884;14.818;2023-07-13T15:32:13;26.60;95.00
5924;DHT22;2987;50.884;14.818;2023-07-13T15:34:41;26.60;92.60
5924;DHT22;2987;50.884;14.818;2023-07-13T15:37:13;26.50;91.90
5924;DHT22;2987;50.884;14.818;2023-07-13T15:39:40;26.50;92.40
5924;DHT22;2987;50.884;14.818;2023-07-13T15:42:22;26.40;91.90
5924;DHT22;2987;50.884;14.818;2023-07-13T15:44:48;26.40;91.40
5924;DHT22;2987;50.884;14.818;2023-07-13T15:47:15;26.30;92.70
5924;DHT22;2987;50.884;14.818;2023-07-13T15:49:42;26.40;92.40
5924;DHT22;2987;50.884;14.818;2023-07-13T15:52:17;26.40;90.70
5924;DHT22;2987;50.884;14.818;2023-07-13T15:54:45;26.50;92.10
5924;DHT22;2987;50.884;14.818;2023-07-13T15:57:11;26.70;93.00
5924;DHT22;2987;50.884;14.818;2023-07-13T15:59:38;26.60;93.10
5924;DHT22;2987;50.884;14.818;2023-07-13T16:02:13;26.60;92.90
5924;DHT22;2987;50.884;14.818;2023-07-13T16:04:41;26.60;91.70
5924;DHT22;2987;50.884;14.818;2023-07-13T16:07:10;26.60;91.70
5924;DHT22;2987;50.884;14.818;2023-07-13T16:09:37;26.60;91.40
5924;DHT22;2987;50.884;14.818;2023-07-13T16:12:11;26.50;92.10
5924;DHT22;2987;50.884;14.818;2023-07-13T16:14:39;26.50;90.90
5924;DHT22;2987;50.884;14.818;2023-07-13T16:17:13;26.40;90.90
5924;DHT22;2987;50.884;14.818;2023-07-13T16:19:41;26.20;92.10
5924;DHT22;2987;50.884;14.818;2023-07-13T16:22:14;26.00;92.20
5924;DHT22;2987;50.884;14.818;2023-07-13T16:24:40;25.80;92.40
5924;DHT22;2987;50.884;14.818;2023-07-13T16:27:09;25.70;91.70
5924;DHT22;2987;50.884;14.818;2023-07-13T16:29:35;25.70;91.70
5924;DHT22;2987;50.884;14.818;2023-07-13T16:32:06;25.60;92.70
5924;DHT22;2987;50.884;14.818;2023-07-13T16:34:36;25.50;91.70
5924;DHT22;2987;50.884;14.818;2023-07-13T16:37:14;25.40;92.40
5924;DHT22;2987;50.884;14.818;2023-07-13T16:39:48;25.30;92.30